sensor_id;sensor_type;location;lat;lon;timestamp;pressure;altitude;pressure_sealevel;temperature;humidity
11413;BME280;5762;43.256;26.960;2023-02-18T00:01:54;100143.70;;;7.69;100.00
11413;BME280;5762;43.256;26.960;2023-02-18T00:04:22;100134.55;;;7.91;100.00
11413;BME280;5762;43.256;26.960;2023-02-18T00:06:50;100131.00;;;8.16;100.00
11413;BME280;5762;43.256;26.960;2023-02-18T00:09:18;100130.18;;;8.28;100.00
11413;BME280;5762;43.256;26.960;2023-02-18T00:11:47;100128.00;;;8.40;100.00
11413;BME280;5762;43.256;26.960;2023-02-18T00:14:16;100127.09;;;8.67;100.00
11413;BME280;5762;43.256;26.960;2023-02-18T00:16:44;100112.97;;;8.91;100.00
11413;BME280;5762;43.256;26.960;2023-02-18T00:19:14;100115.67;;;8.91;100.00
11413;BME280;5762;43.256;26.960;2023-02-18T00:21:42;100122.65;;;8.99;100.00
11413;BME280;5762;43.256;26.960;2023-02-18T00:24:12;100120.44;;;9.04;100.00
11413;BME280;5762;43.256;26.960;2023-02-18T00:26:40;100105.37;;;9.00;100.00
11413;BME280;5762;43.256;26.960;2023-02-18T00:29:09;100106.66;;;9.05;100.00
11413;BME280;5762;43.256;26.960;2023-02-18T00:31:38;100095.05;;;9.07;100.00
11413;BME280;5762;43.256;26.960;2023-02-18T00:34:08;100094.45;;;9.16;100.00
11413;BME280;5762;43.256;26.960;2023-02-18T00:36:37;100099.08;;;9.10;100.00
11413;BME280;5762;43.256;26.960;2023-02-18T00:39:06;100108.61;;;9.00;100.00
11413;BME280;5762;43.256;26.960;2023-02-18T00:41:34;100097.77;;;9.02;100.00
11413;BME280;5762;43.256;26.960;2023-02-18T00:44:03;100100.70;;;9.08;100.00
11413;BME280;5762;43.256;26.960;2023-02-18T00:46:31;100106.41;;;9.02;100.00
11413;BME280;5762;43.256;26.960;2023-02-18T00:48:59;100099.44;;;8.98;100.00
11413;BME280;5762;43.256;26.960;2023-02-18T00:51:27;100092.19;;;8.91;100.00
11413;BME280;5762;43.256;26.960;2023-02-18T00:53:56;100098.72;;;8.78;100.00
11413;BME280;5762;43.256;26.960;2023-02-18T00:56:25;100094.71;;;8.67;100.00
11413;BME280;5762;43.256;26.960;2023-02-18T00:58:54;100097.41;;;8.67;100.00
11413;BME280;5762;43.256;26.960;2023-02-18T01:01:22;100085.05;;;8.61;100.00
11413;BME280;5762;43.256;26.960;2023-02-18T01:03:51;100070.81;;;8.43;100.00
11413;BME280;5762;43.256;26.960;2023-02-18T01:06:20;100069.50;;;8.33;100.00
11413;BME280;5762;43.256;26.960;2023-02-18T01:08:50;100074.89;;;8.33;100.00
11413;BME280;5762;43.256;26.960;2023-02-18T01:11:19;100080.03;;;8.27;100.00
11413;BME280;5762;43.256;26.960;2023-02-18T01:13:47;100061.98;;;8.20;100.00
11413;BME280;5762;43.256;26.960;2023-02-18T01:16:16;100052.21;;;8.42;100.00
11413;BME280;5762;43.256;26.960;2023-02-18T01:18:44;100049.50;;;8.47;100.00
11413;BME280;5762;43.256;26.960;2023-02-18T01:21:13;100041.39;;;8.52;100.00
11413;BME280;5762;43.256;26.960;2023-02-18T01:23:42;100044.64;;;8.46;100.00
11413;BME280;5762;43.256;26.960;2023-02-18T01:26:10;100048.67;;;8.51;100.00
11413;BME280;5762;43.256;26.960;2023-02-18T01:28:38;100045.71;;;8.50;100.00
11413;BME280;5762;43.256;26.960;2023-02-18T01:31:08;100046.55;;;8.43;100.00
11413;BME280;5762;43.256;26.960;2023-02-18T01:33:37;100045.77;;;8.30;100.00
11413;BME280;5762;43.256;26.960;2023-02-18T01:36:05;100048.52;;;8.12;100.00
11413;BME280;5762;43.256;26.960;2023-02-18T01:38:34;100050.75;;;7.87;100.00
11413;BME280;5762;43.256;26.960;2023-02-18T01:41:02;100042.95;;;7.73;100.00
11413;BME280;5762;43.256;26.960;2023-02-18T01:43:31;100044.30;;;7.63;100.00
11413;BME280;5762;43.256;26.960;2023-02-18T01:46:02;100041.33;;;7.72;100.00
11413;BME280;5762;43.256;26.960;2023-02-18T01:51:22;100036.75;;;7.70;100.00
11413;BME280;5762;43.256;26.960;2023-02-18T01:53:53;100040.51;;;7.84;100.00
11413;BME280;5762;43.256;26.960;2023-02-18T01:56:27;100038.94;;;7.40;100.00
11413;BME280;5762;43.256;26.960;2023-02-18T01:58:52;100039.76;;;7.23;100.00
11413;BME280;5762;43.256;26.960;2023-02-18T02:01:20;100029.78;;;7.49;100.00
11413;BME280;5762;43.256;26.960;2023-02-18T02:03:48;100035.70;;;7.33;100.00
11413;BME280;5762;43.256;26.960;2023-02-18T02:06:17;100040.28;;;7.32;100.00
11413;BME280;5762;43.256;26.960;2023-02-18T02:08:46;100039.20;;;7.11;100.00
11413;BME280;5762;43.256;26.960;2023-02-18T02:11:21;100040.55;;;7.13;100.00
11413;BME280;5762;43.256;26.960;2023-02-18T02:13:52;100038.67;;;7.16;100.00
11413;BME280;5762;43.256;26.960;2023-02-18T02:16:24;100033.30;;;7.19;100.00
11413;BME280;5762;43.256;26.960;2023-02-18T02:19:08;100040.55;;;7.11;100.00
11413;BME280;5762;43.256;26.960;2023-02-18T02:21:42;100040.28;;;7.10;100.00
11413;BME280;5762;43.256;26.960;2023-02-18T02:34:27;100018.77;;;7.27;100.00
11413;BME280;5762;43.256;26.960;2023-02-18T02:36:58;100014.16;;;7.28;100.00
11413;BME280;5762;43.256;26.960;2023-02-18T02:39:30;100012.81;;;7.02;100.00
11413;BME280;5762;43.256;26.960;2023-02-18T02:44:38;100016.30;;;6.80;100.00
11413;BME280;5762;43.256;26.960;2023-02-18T02:47:10;100006.86;;;6.70;100.00
11413;BME280;5762;43.256;26.960;2023-02-18T02:52:17;100007.64;;;6.55;100.00
11413;BME280;5762;43.256;26.960;2023-02-18T02:54:36;100007.63;;;6.60;100.00
11413;BME280;5762;43.256;26.960;2023-02-18T02:59:47;100013.34;;;6.84;100.00
11413;BME280;5762;43.256;26.960;2023-02-18T03:02:20;100014.66;;;6.71;100.00
11413;BME280;5762;43.256;26.960;2023-02-18T03:12:51;100009.87;;;7.22;100.00
11413;BME280;5762;43.256;26.960;2023-02-18T03:17:50;99998.03;;;7.13;100.00
11413;BME280;5762;43.256;26.960;2023-02-18T03:20:18;100005.28;;;7.07;100.00
11413;BME280;5762;43.256;26.960;2023-02-18T03:22:44;100003.94;;;7.04;100.00
11413;BME280;5762;43.256;26.960;2023-02-18T03:25:12;100006.63;;;7.07;100.00
11413;BME280;5762;43.256;26.960;2023-02-18T03:27:43;99994.27;;;7.14;100.00
11413;BME280;5762;43.256;26.960;2023-02-18T03:30:17;99995.88;;;7.17;100.00
11413;BME280;5762;43.256;26.960;2023-02-18T03:32:41;100009.06;;;7.16;100.00
11413;BME280;5762;43.256;26.960;2023-02-18T03:35:12;100006.09;;;7.28;100.00
11413;BME280;5762;43.256;26.960;2023-02-18T03:37:42;99999.09;;;7.34;100.00
11413;BME280;5762;43.256;26.960;2023-02-18T03:40:10;99988.34;;;7.24;100.00
11413;BME280;5762;43.256;26.960;2023-02-18T03:42:38;99990.23;;;7.14;100.00
11413;BME280;5762;43.256;26.960;2023-02-18T03:45:07;99985.92;;;7.23;100.00
11413;BME280;5762;43.256;26.960;2023-02-18T03:47:35;99980.55;;;7.25;100.00
11413;BME280;5762;43.256;26.960;2023-02-18T03:50:03;99975.96;;;7.18;100.00
11413;BME280;5762;43.256;26.960;2023-02-18T03:52:32;99987.52;;;7.06;100.00
11413;BME280;5762;43.256;26.960;2023-02-18T03:55:06;99985.92;;;7.18;100.00
11413;BME280;5762;43.256;26.960;2023-02-18T03:57:31;99983.23;;;7.20;100.00
11413;BME280;5762;43.256;26.960;2023-02-18T03:59:59;99989.15;;;7.15;100.00
11413;BME280;5762;43.256;26.960;2023-02-18T04:02:27;99987.53;;;7.14;100.00
11413;BME280;5762;43.256;26.960;2023-02-18T04:04:56;99968.16;;;7.12;100.00
11413;BME280;5762;43.256;26.960;2023-02-18T04:07:25;99966.27;;;7.02;100.00
11413;BME280;5762;43.256;26.960;2023-02-18T04:09:53;99973.81;;;6.90;100.00
11413;BME280;5762;43.256;26.960;2023-02-18T04:12:26;99958.16;;;6.61;100.00
11413;BME280;5762;43.256;26.960;2023-02-18T04:14:51;99961.91;;;6.45;100.00
11413;BME280;5762;43.256;26.960;2023-02-18T04:17:20;99960.30;;;6.47;100.00
11413;BME280;5762;43.256;26.960;2023-02-18T04:19:49;99957.35;;;6.51;100.00
11413;BME280;5762;43.256;26.960;2023-02-18T04:22:17;99954.11;;;6.46;100.00
11413;BME280;5762;43.256;26.960;2023-02-18T04:24:45;99950.37;;;6.52;100.00
11413;BME280;5762;43.256;26.960;2023-02-18T04:27:14;99961.66;;;6.52;100.00
11413;BME280;5762;43.256;26.960;2023-02-18T04:29:43;99951.67;;;6.39;100.00
11413;BME280;5762;43.256;26.960;2023-02-18T04:32:11;99950.31;;;6.34;100.00
11413;BME280;5762;43.256;26.960;2023-02-18T04:34:40;99940.87;;;6.27;100.00
11413;BME280;5762;43.256;26.960;2023-02-18T04:37:08;99933.63;;;6.30;100.00
11413;BME280;5762;43.256;26.960;2023-02-18T04:39:36;99938.22;;;6.34;100.00
11413;BME280;5762;43.256;26.960;2023-02-18T04:42:04;99932.02;;;6.21;100.00
11413;BME280;5762;43.256;26.960;2023-02-18T04:44:34;99928.78;;;6.27;100.00
11413;BME280;5762;43.256;26.960;2023-02-18T04:47:04;99929.07;;;6.33;100.00
11413;BME280;5762;43.256;26.960;2023-02-18T04:49:32;99926.13;;;6.34;100.00
11413;BME280;5762;43.256;26.960;2023-02-18T04:52:00;99921.59;;;6.50;100.00
11413;BME280;5762;43.256;26.960;2023-02-18T04:54:28;99922.67;;;6.54;100.00
11413;BME280;5762;43.256;26.960;2023-02-18T04:56:57;99911.38;;;6.70;100.00
11413;BME280;5762;43.256;26.960;2023-02-18T04:59:26;99899.79;;;7.20;100.00
11413;BME280;5762;43.256;26.960;2023-02-18T05:01:54;99900.41;;;7.79;100.00
11413;BME280;5762;43.256;26.960;2023-02-18T05:04:22;99897.30;;;8.08;100.00
11413;BME280;5762;43.256;26.960;2023-02-18T05:06:51;99887.67;;;8.81;100.00
11413;BME280;5762;43.256;26.960;2023-02-18T05:09:19;99905.55;;;9.58;100.00
11413;BME280;5762;43.256;26.960;2023-02-18T05:11:47;99899.48;;;9.90;100.00
11413;BME280;5762;43.256;26.960;2023-02-18T05:14:17;99914.04;;;9.94;100.00
11413;BME280;5762;43.256;26.960;2023-02-18T05:16:45;99916.52;;;9.91;100.00
11413;BME280;5762;43.256;26.960;2023-02-18T05:19:14;99907.36;;;9.39;100.00
11413;BME280;5762;43.256;26.960;2023-02-18T05:21:43;99911.05;;;8.95;100.00
11413;BME280;5762;43.256;26.960;2023-02-18T05:24:11;99901.55;;;9.29;100.00
11413;BME280;5762;43.256;26.960;2023-02-18T05:26:39;99907.35;;;10.32;100.00
11413;BME280;5762;43.256;26.960;2023-02-18T05:29:08;99918.41;;;10.52;99.87
11413;BME280;5762;43.256;26.960;2023-02-18T05:31:36;99920.27;;;10.89;89.65
11413;BME280;5762;43.256;26.960;2023-02-18T05:34:05;99904.20;;;11.41;81.05
11413;BME280;5762;43.256;26.960;2023-02-18T05:36:34;99915.36;;;11.81;74.45
11413;BME280;5762;43.256;26.960;2023-02-18T05:39:02;99930.44;;;12.00;71.85
11413;BME280;5762;43.256;26.960;2023-02-18T05:41:31;99926.82;;;12.05;70.46
11413;BME280;5762;43.256;26.960;2023-02-18T05:44:00;99895.22;;;12.23;68.37
11413;BME280;5762;43.256;26.960;2023-02-18T05:46:45;99898.24;;;12.46;65.45
11413;BME280;5762;43.256;26.960;2023-02-18T05:49:14;99900.56;;;12.50;64.32
11413;BME280;5762;43.256;26.960;2023-02-18T05:51:42;99904.58;;;12.53;63.79
11413;BME280;5762;43.256;26.960;2023-02-18T05:54:11;99911.95;;;12.74;60.93
11413;BME280;5762;43.256;26.960;2023-02-18T05:56:39;99902.33;;;12.80;61.14
11413;BME280;5762;43.256;26.960;2023-02-18T05:59:07;99883.57;;;12.81;60.33
11413;BME280;5762;43.256;26.960;2023-02-18T06:01:36;99900.64;;;12.92;59.65
11413;BME280;5762;43.256;26.960;2023-02-18T06:04:04;99892.68;;;12.96;58.81
11413;BME280;5762;43.256;26.960;2023-02-18T06:06:32;99896.88;;;13.02;58.58
11413;BME280;5762;43.256;26.960;2023-02-18T06:09:01;99890.20;;;13.08;58.08
11413;BME280;5762;43.256;26.960;2023-02-18T06:11:29;99888.94;;;13.17;56.99
11413;BME280;5762;43.256;26.960;2023-02-18T06:13:57;99875.12;;;13.24;56.32
11413;BME280;5762;43.256;26.960;2023-02-18T06:16:26;99885.13;;;13.26;56.48
11413;BME280;5762;43.256;26.960;2023-02-18T06:18:54;99880.67;;;13.30;56.29
11413;BME280;5762;43.256;26.960;2023-02-18T06:21:22;99879.30;;;13.41;55.12
11413;BME280;5762;43.256;26.960;2023-02-18T06:23:50;99891.70;;;13.45;54.92
11413;BME280;5762;43.256;26.960;2023-02-18T06:26:19;99880.34;;;13.43;55.31
11413;BME280;5762;43.256;26.960;2023-02-18T06:28:48;99873.30;;;13.42;54.75
11413;BME280;5762;43.256;26.960;2023-02-18T06:31:17;99892.88;;;13.41;55.21
11413;BME280;5762;43.256;26.960;2023-02-18T06:33:45;99874.34;;;13.44;55.06
11413;BME280;5762;43.256;26.960;2023-02-18T06:36:14;99874.34;;;13.44;54.94
11413;BME280;5762;43.256;26.960;2023-02-18T06:38:43;99873.66;;;13.49;54.92
11413;BME280;5762;43.256;26.960;2023-02-18T06:41:12;99864.77;;;13.55;54.74
11413;BME280;5762;43.256;26.960;2023-02-18T06:43:40;99871.67;;;13.61;54.04
11413;BME280;5762;43.256;26.960;2023-02-18T06:46:08;99861.91;;;13.60;53.86
11413;BME280;5762;43.256;26.960;2023-02-18T06:48:37;99849.60;;;13.62;54.19
11413;BME280;5762;43.256;26.960;2023-02-18T06:51:05;99860.09;;;13.66;54.55
11413;BME280;5762;43.256;26.960;2023-02-18T06:53:33;99868.11;;;13.71;54.06
11413;BME280;5762;43.256;26.960;2023-02-18T06:56:02;99852.70;;;13.78;53.87
11413;BME280;5762;43.256;26.960;2023-02-18T06:58:31;99861.34;;;13.80;53.97
11413;BME280;5762;43.256;26.960;2023-02-18T07:00:59;99862.00;;;13.94;52.40
11413;BME280;5762;43.256;26.960;2023-02-18T07:03:28;99860.70;;;13.92;52.98
11413;BME280;5762;43.256;26.960;2023-02-18T07:05:56;99847.27;;;13.95;52.38
11413;BME280;5762;43.256;26.960;2023-02-18T07:08:24;99865.05;;;14.01;52.11
11413;BME280;5762;43.256;26.960;2023-02-18T07:10:52;99863.13;;;14.02;52.58
11413;BME280;5762;43.256;26.960;2023-02-18T07:13:21;99867.72;;;14.13;51.85
11413;BME280;5762;43.256;26.960;2023-02-18T07:15:50;99872.36;;;14.12;51.96
11413;BME280;5762;43.256;26.960;2023-02-18T07:18:18;99848.03;;;14.16;51.91
11413;BME280;5762;43.256;26.960;2023-02-18T07:20:47;99878.28;;;14.23;51.67
11413;BME280;5762;43.256;26.960;2023-02-18T07:23:16;99860.98;;;14.27;51.98
11413;BME280;5762;43.256;26.960;2023-02-18T07:25:45;99867.72;;;14.30;51.44
11413;BME280;5762;43.256;26.960;2023-02-18T07:28:13;99860.84;;;14.32;51.65
11413;BME280;5762;43.256;26.960;2023-02-18T07:30:41;99865.89;;;14.36;51.40
11413;BME280;5762;43.256;26.960;2023-02-18T07:33:10;99865.09;;;14.36;51.64
11413;BME280;5762;43.256;26.960;2023-02-18T07:35:39;99848.11;;;14.39;51.62
11413;BME280;5762;43.256;26.960;2023-02-18T07:38:07;99841.94;;;14.36;52.04
11413;BME280;5762;43.256;26.960;2023-02-18T07:40:36;99845.70;;;14.37;52.53
11413;BME280;5762;43.256;26.960;2023-02-18T07:43:05;99848.19;;;14.36;51.69
11413;BME280;5762;43.256;26.960;2023-02-18T07:45:36;99849.34;;;14.44;51.72
11413;BME280;5762;43.256;26.960;2023-02-18T07:48:03;99844.86;;;14.48;51.52
11413;BME280;5762;43.256;26.960;2023-02-18T07:50:32;99839.49;;;14.54;51.61
11413;BME280;5762;43.256;26.960;2023-02-18T07:53:00;99854.55;;;14.52;51.58
11413;BME280;5762;43.256;26.960;2023-02-18T07:55:29;99845.88;;;14.58;51.67
11413;BME280;5762;43.256;26.960;2023-02-18T07:58:16;99834.73;;;14.57;52.14
11413;BME280;5762;43.256;26.960;2023-02-18T08:00:45;99862.70;;;14.60;51.82
11413;BME280;5762;43.256;26.960;2023-02-18T08:03:19;99863.34;;;14.66;51.77
11413;BME280;5762;43.256;26.960;2023-02-18T08:05:43;99840.09;;;14.68;51.35
11413;BME280;5762;43.256;26.960;2023-02-18T08:08:13;99864.37;;;14.67;51.82
11413;BME280;5762;43.256;26.960;2023-02-18T08:10:42;99846.83;;;14.71;51.32
11413;BME280;5762;43.256;26.960;2023-02-18T08:13:10;99860.84;;;14.75;51.77
11413;BME280;5762;43.256;26.960;2023-02-18T08:15:38;99858.36;;;14.77;51.49
11413;BME280;5762;43.256;26.960;2023-02-18T08:18:07;99859.56;;;14.73;51.68
11413;BME280;5762;43.256;26.960;2023-02-18T08:20:35;99854.92;;;14.73;51.46
11413;BME280;5762;43.256;26.960;2023-02-18T08:23:04;99853.39;;;14.79;52.14
11413;BME280;5762;43.256;26.960;2023-02-18T08:25:32;99858.53;;;14.71;52.24
11413;BME280;5762;43.256;26.960;2023-02-18T08:28:01;99838.02;;;14.57;52.45
11413;BME280;5762;43.256;26.960;2023-02-18T08:30:29;99852.31;;;14.54;52.38
11413;BME280;5762;43.256;26.960;2023-02-18T08:32:57;99848.52;;;14.61;52.53
11413;BME280;5762;43.256;26.960;2023-02-18T08:35:25;99825.76;;;14.65;52.45
11413;BME280;5762;43.256;26.960;2023-02-18T08:37:53;99819.75;;;14.66;52.52
11413;BME280;5762;43.256;26.960;2023-02-18T08:40:21;99822.80;;;14.64;52.00
11413;BME280;5762;43.256;26.960;2023-02-18T08:42:52;99823.67;;;14.71;52.45
11413;BME280;5762;43.256;26.960;2023-02-18T08:45:20;99761.97;;;14.75;52.73
11413;BME280;5762;43.256;26.960;2023-02-18T08:47:49;99796.34;;;14.73;52.09
11413;BME280;5762;43.256;26.960;2023-02-18T08:50:18;99815.48;;;14.80;52.33
11413;BME280;5762;43.256;26.960;2023-02-18T08:52:46;99816.27;;;14.89;52.62
11413;BME280;5762;43.256;26.960;2023-02-18T08:55:15;99794.09;;;14.99;51.86
11413;BME280;5762;43.256;26.960;2023-02-18T08:57:44;99799.84;;;15.06;51.90
11413;BME280;5762;43.256;26.960;2023-02-18T09:00:13;99764.47;;;15.12;51.28
11413;BME280;5762;43.256;26.960;2023-02-18T09:02:42;99791.97;;;15.13;51.17
11413;BME280;5762;43.256;26.960;2023-02-18T09:05:11;99743.75;;;15.20;51.38
11413;BME280;5762;43.256;26.960;2023-02-18T09:07:39;99778.33;;;15.28;51.15
11413;BME280;5762;43.256;26.960;2023-02-18T09:10:08;99778.77;;;15.38;50.94
11413;BME280;5762;43.256;26.960;2023-02-18T09:12:36;99758.45;;;15.42;50.67
11413;BME280;5762;43.256;26.960;2023-02-18T09:15:05;99760.67;;;15.49;51.14
11413;BME280;5762;43.256;26.960;2023-02-18T09:17:34;99758.55;;;15.54;50.94
11413;BME280;5762;43.256;26.960;2023-02-18T09:20:02;99746.98;;;15.72;51.00
11413;BME280;5762;43.256;26.960;2023-02-18T09:22:31;99756.56;;;15.78;51.17
11413;BME280;5762;43.256;26.960;2023-02-18T09:24:59;99751.48;;;15.83;51.35
11413;BME280;5762;43.256;26.960;2023-02-18T09:27:28;99759.77;;;15.80;51.69
11413;BME280;5762;43.256;26.960;2023-02-18T09:29:57;99743.52;;;15.84;51.97
11413;BME280;5762;43.256;26.960;2023-02-18T09:32:26;99755.75;;;15.92;52.32
11413;BME280;5762;43.256;26.960;2023-02-18T09:34:54;99784.08;;;15.94;52.96
11413;BME280;5762;43.256;26.960;2023-02-18T09:37:23;99776.22;;;15.92;53.36
11413;BME280;5762;43.256;26.960;2023-02-18T09:39:52;99749.22;;;15.85;53.99
11413;BME280;5762;43.256;26.960;2023-02-18T09:42:21;99751.52;;;15.89;54.98
11413;BME280;5762;43.256;26.960;2023-02-18T09:44:51;99751.48;;;15.83;55.25
11413;BME280;5762;43.256;26.960;2023-02-18T09:47:30;99687.55;;;15.78;56.43
11413;BME280;5762;43.256;26.960;2023-02-18T09:49:59;99748.01;;;15.73;57.51
11413;BME280;5762;43.256;26.960;2023-02-18T09:52:28;99770.21;;;15.78;57.74
11413;BME280;5762;43.256;26.960;2023-02-18T09:54:59;99751.34;;;15.79;59.51
11413;BME280;5762;43.256;26.960;2023-02-18T09:57:29;99706.35;;;15.85;60.31
11413;BME280;5762;43.256;26.960;2023-02-18T10:00:04;99776.08;;;15.89;61.18
11413;BME280;5762;43.256;26.960;2023-02-18T10:02:27;99760.50;;;15.89;62.55
11413;BME280;5762;43.256;26.960;2023-02-18T10:04:56;99709.34;;;15.92;64.02
11413;BME280;5762;43.256;26.960;2023-02-18T10:07:32;99754.15;;;15.91;65.19
11413;BME280;5762;43.256;26.960;2023-02-18T10:09:58;99777.12;;;15.96;66.59
11413;BME280;5762;43.256;26.960;2023-02-18T10:12:26;99746.66;;;16.00;67.47
11413;BME280;5762;43.256;26.960;2023-02-18T10:14:57;99757.11;;;15.92;68.85
11413;BME280;5762;43.256;26.960;2023-02-18T10:17:27;99754.61;;;15.93;68.81
11413;BME280;5762;43.256;26.960;2023-02-18T10:19:55;99754.15;;;15.91;68.72
11413;BME280;5762;43.256;26.960;2023-02-18T10:22:25;99755.52;;;15.91;67.86
11413;BME280;5762;43.256;26.960;2023-02-18T10:25:01;99752.33;;;15.95;67.67
11413;BME280;5762;43.256;26.960;2023-02-18T10:27:30;99738.91;;;15.96;66.82
11413;BME280;5762;43.256;26.960;2023-02-18T10:30:01;99764.87;;;16.02;66.01
11413;BME280;5762;43.256;26.960;2023-02-18T10:32:32;99764.45;;;16.06;65.69
11413;BME280;5762;43.256;26.960;2023-02-18T10:40:05;99733.84;;;16.07;65.80
11413;BME280;5762;43.256;26.960;2023-02-18T10:48:02;99733.70;;;16.30;64.25
11413;BME280;5762;43.256;26.960;2023-02-18T10:50:34;99735.01;;;16.45;64.85
11413;BME280;5762;43.256;26.960;2023-02-18T10:53:10;99740.83;;;16.50;64.59
11413;BME280;5762;43.256;26.960;2023-02-18T10:55:40;99730.80;;;16.48;64.50
11413;BME280;5762;43.256;26.960;2023-02-18T11:00:53;99719.02;;;16.29;67.19
11413;BME280;5762;43.256;26.960;2023-02-18T11:03:23;99714.02;;;16.25;68.02
11413;BME280;5762;43.256;26.960;2023-02-18T11:05:53;99723.34;;;16.30;67.27
11413;BME280;5762;43.256;26.960;2023-02-18T11:08:22;99706.53;;;16.40;67.34
11413;BME280;5762;43.256;26.960;2023-02-18T11:10:50;99712.69;;;16.43;66.32
11413;BME280;5762;43.256;26.960;2023-02-18T11:13:23;99705.09;;;16.49;65.86
11413;BME280;5762;43.256;26.960;2023-02-18T11:15:53;99711.13;;;16.54;66.18
11413;BME280;5762;43.256;26.960;2023-02-18T11:20:55;99711.64;;;16.74;65.70
11413;BME280;5762;43.256;26.960;2023-02-18T11:23:20;99693.53;;;16.76;65.81
11413;BME280;5762;43.256;26.960;2023-02-18T11:25:57;99705.16;;;16.79;66.54
11413;BME280;5762;43.256;26.960;2023-02-18T11:30:58;99700.95;;;16.82;67.89
11413;BME280;5762;43.256;26.960;2023-02-18T11:33:34;99690.13;;;16.85;68.03
11413;BME280;5762;43.256;26.960;2023-02-18T11:36:16;99708.81;;;16.83;69.02
11413;BME280;5762;43.256;26.960;2023-02-18T11:38:46;99693.66;;;16.86;69.05
11413;BME280;5762;43.256;26.960;2023-02-18T11:41:12;99691.84;;;16.84;68.77
11413;BME280;5762;43.256;26.960;2023-02-18T11:43:41;99690.70;;;16.91;69.77
11413;BME280;5762;43.256;26.960;2023-02-18T11:46:11;99691.84;;;16.84;69.45
11413;BME280;5762;43.256;26.960;2023-02-18T11:48:39;99700.26;;;16.79;70.15
11413;BME280;5762;43.256;26.960;2023-02-18T11:51:18;99699.36;;;16.87;69.77
11413;BME280;5762;43.256;26.960;2023-02-18T11:53:37;99670.20;;;16.91;69.40
11413;BME280;5762;43.256;26.960;2023-02-18T11:56:16;99692.28;;;17.10;69.55
11413;BME280;5762;43.256;26.960;2023-02-18T11:58:45;99684.53;;;17.30;69.15
11413;BME280;5762;43.256;26.960;2023-02-18T12:01:17;99680.27;;;17.45;68.62
11413;BME280;5762;43.256;26.960;2023-02-18T12:03:51;99654.39;;;17.42;68.74
11413;BME280;5762;43.256;26.960;2023-02-18T12:06:14;99672.84;;;17.52;69.33
11413;BME280;5762;43.256;26.960;2023-02-18T12:08:56;99654.18;;;17.35;72.12
11413;BME280;5762;43.256;26.960;2023-02-18T12:11:32;99653.80;;;16.91;77.76
11413;BME280;5762;43.256;26.960;2023-02-18T12:13:57;99614.39;;;16.80;81.73
11413;BME280;5762;43.256;26.960;2023-02-18T12:24:17;99586.27;;;16.85;85.54
11413;BME280;5762;43.256;26.960;2023-02-18T12:29:27;99642.52;;;16.74;87.10
11413;BME280;5762;43.256;26.960;2023-02-18T12:52:56;99638.88;;;16.88;88.82
11413;BME280;5762;43.256;26.960;2023-02-18T12:55:22;99621.11;;;16.76;91.83
11413;BME280;5762;43.256;26.960;2023-02-18T13:00:38;99620.74;;;16.53;96.44
11413;BME280;5762;43.256;26.960;2023-02-18T13:05:37;99622.08;;;16.23;100.00
11413;BME280;5762;43.256;26.960;2023-02-18T13:15:50;99609.97;;;16.05;100.00
11413;BME280;5762;43.256;26.960;2023-02-18T13:18:27;99644.97;;;15.97;100.00
11413;BME280;5762;43.256;26.960;2023-02-18T13:20:55;99616.31;;;15.97;100.00
11413;BME280;5762;43.256;26.960;2023-02-18T13:23:25;99603.80;;;15.96;100.00
11413;BME280;5762;43.256;26.960;2023-02-18T13:25:57;99612.22;;;15.91;100.00
11413;BME280;5762;43.256;26.960;2023-02-18T13:28:28;99609.27;;;15.90;100.00
11413;BME280;5762;43.256;26.960;2023-02-18T13:31:09;99636.32;;;15.89;100.00
11413;BME280;5762;43.256;26.960;2023-02-18T13:33:35;99634.84;;;15.98;100.00
11413;BME280;5762;43.256;26.960;2023-02-18T13:36:09;99624.50;;;15.97;100.00
11413;BME280;5762;43.256;26.960;2023-02-18T13:41:02;99622.36;;;16.03;100.00
11413;BME280;5762;43.256;26.960;2023-02-18T13:43:32;99618.52;;;16.10;100.00
11413;BME280;5762;43.256;26.960;2023-02-18T13:48:45;99616.70;;;16.14;100.00
11413;BME280;5762;43.256;26.960;2023-02-18T13:51:15;99619.77;;;16.13;100.00
11413;BME280;5762;43.256;26.960;2023-02-18T13:53:43;99626.34;;;16.05;100.00
11413;BME280;5762;43.256;26.960;2023-02-18T13:58:53;99615.99;;;16.05;100.00
11413;BME280;5762;43.256;26.960;2023-02-18T14:01:22;99587.08;;;15.98;100.00
11413;BME280;5762;43.256;26.960;2023-02-18T14:03:52;99614.71;;;15.96;100.00
11413;BME280;5762;43.256;26.960;2023-02-18T14:06:24;99627.56;;;15.90;100.00
11413;BME280;5762;43.256;26.960;2023-02-18T14:09:03;99598.01;;;15.92;100.00
11413;BME280;5762;43.256;26.960;2023-02-18T14:11:32;99619.92;;;15.83;100.00
11413;BME280;5762;43.256;26.960;2023-02-18T14:14:14;99635.59;;;15.80;100.00
11413;BME280;5762;43.256;26.960;2023-02-18T14:19:28;99630.61;;;15.61;100.00
11413;BME280;5762;43.256;26.960;2023-02-18T14:22:22;99645.39;;;15.60;100.00
11413;BME280;5762;43.256;26.960;2023-02-18T14:27:14;99612.85;;;15.55;100.00
11413;BME280;5762;43.256;26.960;2023-02-18T14:29:41;99626.82;;;15.54;100.00
11413;BME280;5762;43.256;26.960;2023-02-18T14:32:10;99638.47;;;15.57;100.00
11413;BME280;5762;43.256;26.960;2023-02-18T14:42:29;99634.23;;;15.38;100.00
11413;BME280;5762;43.256;26.960;2023-02-18T14:45:02;99628.31;;;15.36;100.00
11413;BME280;5762;43.256;26.960;2023-02-18T14:47:34;99636.83;;;15.35;100.00
11413;BME280;5762;43.256;26.960;2023-02-18T14:50:00;99609.42;;;15.31;100.00
11413;BME280;5762;43.256;26.960;2023-02-18T14:52:31;99626.91;;;15.30;100.00
11413;BME280;5762;43.256;26.960;2023-02-18T14:55:00;99610.92;;;15.35;100.00
11413;BME280;5762;43.256;26.960;2023-02-18T14:57:40;99612.75;;;15.37;100.00
11413;BME280;5762;43.256;26.960;2023-02-18T15:00:04;99606.73;;;15.37;100.00
11413;BME280;5762;43.256;26.960;2023-02-18T15:02:34;99621.36;;;15.33;100.00
11413;BME280;5762;43.256;26.960;2023-02-18T15:05:14;99619.48;;;15.25;100.00